NSZ3302 EKCH-EDDB
Flight info
| Callsign | NSZ3302 |
|---|---|
| Flight time | 0h 55m |
| Altitude | 37000 |
| Route | SALLO M44 KOGIM M725 RODEP T280 KETAP KETAP1R |
| Aircraft | B738/M-SDE2E3FGHIRWXY/LB1 |
Departure
| Time | 2026-05-07 14:09 |
|---|---|
| Airport | Copenhagen Kastrup Airport (EKCH) |
Arrival
| Time | 2026-05-07 15:05 |
|---|---|
| Airport | Berlin Brandenburg Airport (EDDB) |
| Time | Latitude | Longitude | Altitude | Speed | Heading |
|---|---|---|---|---|---|
| 2026-05-07 13:32 | 55.62815 | 12.64217 | 27 ft | 0 kts | 123° |
| 2026-05-07 13:54 | 55.62825 | 12.64190 | 25 ft | 4 kts | 123° |
| 2026-05-07 13:54 | 55.62836 | 12.64158 | 26 ft | 4 kts | 120° |
| 2026-05-07 13:54 | 55.62844 | 12.64118 | 28 ft | 4 kts | 75° |
| 2026-05-07 13:55 | 55.62835 | 12.64080 | 28 ft | 4 kts | 66° |
| 2026-05-07 13:55 | 55.62826 | 12.64043 | 25 ft | 3 kts | 67° |
| 2026-05-07 13:55 | 55.62822 | 12.64001 | 25 ft | 4 kts | 103° |
| 2026-05-07 13:55 | 55.62828 | 12.63963 | 25 ft | 4 kts | 104° |
| 2026-05-07 13:56 | 55.62834 | 12.63916 | 27 ft | 4 kts | 104° |
| 2026-05-07 13:56 | 55.62840 | 12.63876 | 27 ft | 1 kts | 104° |
| 2026-05-07 13:56 | 55.62840 | 12.63875 | 27 ft | 0 kts | 104° |
| 2026-05-07 13:58 | 55.62840 | 12.63877 | 27 ft | 1 kts | 104° |
| 2026-05-07 13:59 | 55.62831 | 12.63920 | 26 ft | 7 kts | 120° |
| 2026-05-07 13:59 | 55.62773 | 12.63949 | 23 ft | 11 kts | 204° |
| 2026-05-07 13:59 | 55.62709 | 12.63879 | 23 ft | 11 kts | 213° |
| 2026-05-07 13:59 | 55.62645 | 12.63886 | 23 ft | 10 kts | 133° |
| 2026-05-07 14:00 | 55.62605 | 12.63989 | 24 ft | 10 kts | 123° |
| 2026-05-07 14:00 | 55.62560 | 12.64109 | 23 ft | 13 kts | 123° |
| 2026-05-07 14:00 | 55.62503 | 12.64263 | 23 ft | 17 kts | 123° |
| 2026-05-07 14:00 | 55.62431 | 12.64428 | 23 ft | 17 kts | 128° |
| 2026-05-07 14:01 | 55.62367 | 12.64596 | 24 ft | 16 kts | 123° |
| 2026-05-07 14:01 | 55.62312 | 12.64745 | 25 ft | 10 kts | 123° |
| 2026-05-07 14:01 | 55.62254 | 12.64795 | 23 ft | 9 kts | 176° |
| 2026-05-07 14:01 | 55.62221 | 12.64780 | 23 ft | 0 kts | 209° |
| 2026-05-07 14:03 | 55.62220 | 12.64779 | 23 ft | 1 kts | 209° |
| 2026-05-07 14:03 | 55.62190 | 12.64749 | 24 ft | 8 kts | 210° |
| 2026-05-07 14:04 | 55.62140 | 12.64696 | 25 ft | 8 kts | 213° |
| 2026-05-07 14:04 | 55.62083 | 12.64625 | 22 ft | 13 kts | 215° |
| 2026-05-07 14:04 | 55.62001 | 12.64532 | 23 ft | 14 kts | 207° |
| 2026-05-07 14:04 | 55.61906 | 12.64510 | 23 ft | 14 kts | 174° |
| 2026-05-07 14:05 | 55.61814 | 12.64537 | 24 ft | 13 kts | 170° |
| 2026-05-07 14:05 | 55.61726 | 12.64565 | 24 ft | 13 kts | 170° |
| 2026-05-07 14:05 | 55.61641 | 12.64523 | 24 ft | 14 kts | 211° |
| 2026-05-07 14:05 | 55.61543 | 12.64410 | 24 ft | 19 kts | 214° |
| 2026-05-07 14:06 | 55.61431 | 12.64282 | 23 ft | 19 kts | 212° |
| 2026-05-07 14:06 | 55.61323 | 12.64160 | 24 ft | 18 kts | 213° |
| 2026-05-07 14:06 | 55.61219 | 12.64040 | 23 ft | 18 kts | 213° |
| 2026-05-07 14:06 | 55.61119 | 12.63924 | 25 ft | 17 kts | 213° |
| 2026-05-07 14:07 | 55.61022 | 12.63813 | 23 ft | 16 kts | 213° |
| 2026-05-07 14:07 | 55.60930 | 12.63706 | 25 ft | 16 kts | 213° |
| 2026-05-07 14:07 | 55.60845 | 12.63607 | 25 ft | 11 kts | 212° |
| 2026-05-07 14:07 | 55.60775 | 12.63625 | 23 ft | 11 kts | 134° |
| 2026-05-07 14:08 | 55.60724 | 12.63727 | 25 ft | 11 kts | 131° |
| 2026-05-07 14:08 | 55.60684 | 12.63835 | 24 ft | 10 kts | 100° |
| 2026-05-07 14:08 | 55.60704 | 12.63907 | 26 ft | 8 kts | 45° |
| 2026-05-07 14:08 | 55.60841 | 12.64115 | 27 ft | 57 kts | 41° |
| 2026-05-07 14:09 | 55.61314 | 12.64849 | 26 ft | 120 kts | 41° |
| 2026-05-07 14:09 | 55.62074 | 12.66011 | 106 ft | 161 kts | 39° |
| 2026-05-07 14:09 | 55.62936 | 12.67348 | 694 ft | 170 kts | 40° |
| 2026-05-07 14:09 | 55.63870 | 12.68797 | 1230 ft | 185 kts | 40° |
| 2026-05-07 14:10 | 55.64852 | 12.70306 | 1863 ft | 193 kts | 39° |
| 2026-05-07 14:10 | 55.65937 | 12.71950 | 2060 ft | 216 kts | 39° |
| 2026-05-07 14:10 | 55.67118 | 12.73721 | 2397 ft | 231 kts | 38° |
| 2026-05-07 14:10 | 55.68403 | 12.75641 | 2740 ft | 249 kts | 39° |
| 2026-05-07 14:11 | 55.69724 | 12.77655 | 3437 ft | 252 kts | 44° |
| 2026-05-07 14:11 | 55.70615 | 12.80347 | 4107 ft | 259 kts | 75° |
| 2026-05-07 14:11 | 55.70629 | 12.83548 | 4827 ft | 267 kts | 102° |
| 2026-05-07 14:11 | 55.69750 | 12.86431 | 5537 ft | 272 kts | 134° |
| 2026-05-07 14:12 | 55.68153 | 12.88234 | 6251 ft | 277 kts | 158° |
| 2026-05-07 14:12 | 55.66363 | 12.89382 | 6984 ft | 278 kts | 160° |
| 2026-05-07 14:12 | 55.64498 | 12.90529 | 7691 ft | 282 kts | 159° |
| 2026-05-07 14:12 | 55.62624 | 12.91673 | 8409 ft | 287 kts | 163° |
| 2026-05-07 14:13 | 55.60651 | 12.91851 | 9258 ft | 286 kts | 192° |
| 2026-05-07 14:13 | 55.58839 | 12.90401 | 10004 ft | 290 kts | 218° |
| 2026-05-07 14:13 | 55.57352 | 12.87919 | 10481 ft | 303 kts | 226° |
| 2026-05-07 14:13 | 55.55849 | 12.85107 | 10654 ft | 326 kts | 227° |
| 2026-05-07 14:14 | 55.54246 | 12.82118 | 10994 ft | 341 kts | 226° |
| 2026-05-07 14:14 | 55.52514 | 12.79294 | 11585 ft | 348 kts | 212° |
| 2026-05-07 14:14 | 55.50264 | 12.77804 | 12386 ft | 348 kts | 189° |
| 2026-05-07 14:14 | 55.47845 | 12.77817 | 13154 ft | 351 kts | 174° |
| 2026-05-07 14:15 | 55.45413 | 12.78372 | 13896 ft | 355 kts | 172° |
| 2026-05-07 14:15 | 55.42955 | 12.78976 | 14581 ft | 358 kts | 173° |
| 2026-05-07 14:15 | 55.40747 | 12.79497 | 15200 ft | 361 kts | 173° |
| 2026-05-07 14:15 | 55.38426 | 12.80010 | 15850 ft | 365 kts | 174° |
| 2026-05-07 14:16 | 55.35896 | 12.80557 | 16550 ft | 368 kts | 174° |
| 2026-05-07 14:16 | 55.33469 | 12.81375 | 17194 ft | 374 kts | 160° |
| 2026-05-07 14:16 | 55.31243 | 12.83631 | 17867 ft | 379 kts | 144° |
| 2026-05-07 14:16 | 55.29159 | 12.86508 | 18529 ft | 383 kts | 142° |
| 2026-05-07 14:17 | 55.27080 | 12.89475 | 19094 ft | 388 kts | 142° |
| 2026-05-07 14:17 | 55.25298 | 12.92028 | 19592 ft | 390 kts | 142° |
| 2026-05-07 14:17 | 55.23691 | 12.94293 | 20051 ft | 392 kts | 142° |
| 2026-05-07 14:17 | 55.21553 | 12.97307 | 20638 ft | 395 kts | 142° |
| 2026-05-07 14:18 | 55.19550 | 13.00130 | 21169 ft | 398 kts | 142° |
| 2026-05-07 14:18 | 55.17881 | 13.02470 | 21622 ft | 401 kts | 143° |
| 2026-05-07 14:18 | 55.16200 | 13.04815 | 22052 ft | 403 kts | 143° |
| 2026-05-07 14:18 | 55.14402 | 13.07315 | 22512 ft | 405 kts | 143° |
| 2026-05-07 14:19 | 55.12559 | 13.09874 | 22964 ft | 408 kts | 143° |
| 2026-05-07 14:19 | 55.10706 | 13.12443 | 23404 ft | 411 kts | 143° |
| 2026-05-07 14:19 | 55.08512 | 13.15480 | 23876 ft | 414 kts | 143° |
| 2026-05-07 14:19 | 55.06298 | 13.18542 | 24307 ft | 417 kts | 143° |
| 2026-05-07 14:20 | 55.04025 | 13.21678 | 24790 ft | 418 kts | 143° |
| 2026-05-07 14:20 | 55.01736 | 13.24830 | 25235 ft | 420 kts | 144° |
| 2026-05-07 14:20 | 54.99436 | 13.27993 | 25663 ft | 422 kts | 143° |
| 2026-05-07 14:20 | 54.97121 | 13.31173 | 26079 ft | 425 kts | 143° |
| 2026-05-07 14:21 | 54.94792 | 13.34366 | 26497 ft | 427 kts | 143° |
| 2026-05-07 14:21 | 54.92407 | 13.37459 | 26891 ft | 428 kts | 151° |
| 2026-05-07 14:21 | 54.89652 | 13.39337 | 27252 ft | 426 kts | 170° |
| 2026-05-07 14:21 | 54.86726 | 13.40155 | 27695 ft | 426 kts | 173° |
| 2026-05-07 14:22 | 54.83779 | 13.40867 | 28057 ft | 429 kts | 174° |
| 2026-05-07 14:22 | 54.80812 | 13.41589 | 28396 ft | 432 kts | 173° |
| 2026-05-07 14:22 | 54.77865 | 13.42340 | 28727 ft | 435 kts | 173° |
| 2026-05-07 14:22 | 54.74871 | 13.43135 | 29139 ft | 436 kts | 172° |
| 2026-05-07 14:23 | 54.71867 | 13.43945 | 29521 ft | 438 kts | 172° |
| 2026-05-07 14:23 | 54.68854 | 13.44757 | 29836 ft | 440 kts | 172° |
| 2026-05-07 14:23 | 54.65812 | 13.45570 | 30141 ft | 443 kts | 172° |
| 2026-05-07 14:23 | 54.62761 | 13.46380 | 30416 ft | 445 kts | 172° |
| 2026-05-07 14:24 | 54.59699 | 13.47191 | 30729 ft | 445 kts | 172° |
| 2026-05-07 14:24 | 54.56643 | 13.48001 | 31122 ft | 444 kts | 172° |
| 2026-05-07 14:24 | 54.53591 | 13.48809 | 31506 ft | 443 kts | 172° |
| 2026-05-07 14:24 | 54.50545 | 13.49614 | 31824 ft | 443 kts | 172° |
| 2026-05-07 14:25 | 54.47513 | 13.50400 | 31800 ft | 436 kts | 173° |
| 2026-05-07 14:25 | 54.44570 | 13.51148 | 31767 ft | 420 kts | 173° |
| 2026-05-07 14:25 | 54.41732 | 13.51866 | 31751 ft | 405 kts | 173° |
| 2026-05-07 14:25 | 54.38993 | 13.52558 | 31744 ft | 391 kts | 173° |
| 2026-05-07 14:26 | 54.36345 | 13.53228 | 31744 ft | 381 kts | 173° |
| 2026-05-07 14:26 | 54.31102 | 13.54552 | 31578 ft | 378 kts | 173° |
| 2026-05-07 14:26 | 54.28510 | 13.55219 | 31115 ft | 377 kts | 173° |
| 2026-05-07 14:27 | 54.25913 | 13.55892 | 30621 ft | 378 kts | 174° |
| 2026-05-07 14:27 | 54.23319 | 13.56563 | 30250 ft | 375 kts | 173° |
| 2026-05-07 14:27 | 54.20765 | 13.57223 | 30020 ft | 368 kts | 173° |
| 2026-05-07 14:27 | 54.18249 | 13.57872 | 29598 ft | 365 kts | 173° |
| 2026-05-07 14:28 | 54.15744 | 13.58525 | 29081 ft | 364 kts | 173° |
| 2026-05-07 14:28 | 54.13241 | 13.59180 | 28554 ft | 364 kts | 173° |
| 2026-05-07 14:28 | 54.10739 | 13.59834 | 28096 ft | 363 kts | 173° |
| 2026-05-07 14:28 | 54.08249 | 13.60484 | 27671 ft | 361 kts | 173° |
| 2026-05-07 14:29 | 54.05773 | 13.61130 | 27208 ft | 360 kts | 173° |
| 2026-05-07 14:29 | 54.03297 | 13.61774 | 26779 ft | 359 kts | 173° |
| 2026-05-07 14:29 | 54.00835 | 13.62414 | 26379 ft | 357 kts | 173° |
| 2026-05-07 14:29 | 53.98393 | 13.63048 | 26005 ft | 354 kts | 173° |
| 2026-05-07 14:30 | 53.95996 | 13.63669 | 25641 ft | 352 kts | 173° |
| 2026-05-07 14:30 | 53.93581 | 13.64294 | 25275 ft | 350 kts | 173° |
| 2026-05-07 14:30 | 53.91180 | 13.64974 | 24845 ft | 351 kts | 171° |
| 2026-05-07 14:30 | 53.88779 | 13.65816 | 24397 ft | 352 kts | 169° |
| 2026-05-07 14:31 | 53.86384 | 13.66706 | 24001 ft | 352 kts | 169° |
| 2026-05-07 14:31 | 53.84008 | 13.67589 | 23643 ft | 351 kts | 170° |
| 2026-05-07 14:31 | 53.81626 | 13.68459 | 23221 ft | 350 kts | 170° |
| 2026-05-07 14:31 | 53.80022 | 13.69036 | 22965 ft | 348 kts | 170° |
| 2026-05-07 14:32 | 53.76895 | 13.70151 | 22468 ft | 345 kts | 169° |
| 2026-05-07 14:32 | 53.75316 | 13.70714 | 22200 ft | 344 kts | 169° |
| 2026-05-07 14:32 | 53.72977 | 13.71546 | 21782 ft | 343 kts | 169° |
| 2026-05-07 14:32 | 53.69893 | 13.72638 | 21308 ft | 340 kts | 169° |
| 2026-05-07 14:33 | 53.68318 | 13.73020 | 21067 ft | 338 kts | 177° |
| 2026-05-07 14:33 | 53.65980 | 13.72961 | 20730 ft | 335 kts | 184° |
| 2026-05-07 14:33 | 53.63696 | 13.72717 | 20387 ft | 333 kts | 184° |
| 2026-05-07 14:33 | 53.61394 | 13.72449 | 20051 ft | 331 kts | 185° |
| 2026-05-07 14:34 | 53.59103 | 13.72185 | 19721 ft | 329 kts | 184° |
| 2026-05-07 14:34 | 53.56829 | 13.71932 | 19388 ft | 327 kts | 185° |
| 2026-05-07 14:34 | 53.54563 | 13.71687 | 19054 ft | 325 kts | 184° |
| 2026-05-07 14:34 | 53.52308 | 13.71450 | 18726 ft | 324 kts | 185° |
| 2026-05-07 14:35 | 53.50060 | 13.71216 | 18401 ft | 323 kts | 184° |
| 2026-05-07 14:35 | 53.47823 | 13.70987 | 18028 ft | 322 kts | 184° |
| 2026-05-07 14:35 | 53.45597 | 13.70760 | 17676 ft | 320 kts | 185° |
| 2026-05-07 14:35 | 53.43380 | 13.70535 | 17337 ft | 318 kts | 184° |
| 2026-05-07 14:36 | 53.41182 | 13.70312 | 16998 ft | 316 kts | 184° |
| 2026-05-07 14:36 | 53.39001 | 13.70092 | 16684 ft | 313 kts | 184° |
| 2026-05-07 14:36 | 53.36833 | 13.69872 | 16362 ft | 311 kts | 184° |
| 2026-05-07 14:36 | 53.34676 | 13.69655 | 16044 ft | 309 kts | 184° |
| 2026-05-07 14:37 | 53.32533 | 13.69439 | 15731 ft | 308 kts | 184° |
| 2026-05-07 14:37 | 53.28282 | 13.69011 | 15106 ft | 305 kts | 184° |
| 2026-05-07 14:37 | 53.26171 | 13.68799 | 14795 ft | 303 kts | 184° |
| 2026-05-07 14:38 | 53.24068 | 13.68588 | 14482 ft | 302 kts | 184° |
| 2026-05-07 14:38 | 53.21974 | 13.68378 | 14174 ft | 301 kts | 184° |
| 2026-05-07 14:38 | 53.19889 | 13.68169 | 13847 ft | 300 kts | 184° |
| 2026-05-07 14:38 | 53.17809 | 13.67961 | 13513 ft | 299 kts | 184° |
| 2026-05-07 14:39 | 53.15732 | 13.67753 | 13176 ft | 298 kts | 184° |
| 2026-05-07 14:39 | 53.13672 | 13.67548 | 12858 ft | 296 kts | 184° |
| 2026-05-07 14:39 | 53.11906 | 13.67372 | 12589 ft | 295 kts | 184° |
| 2026-05-07 14:39 | 53.10067 | 13.67191 | 12312 ft | 293 kts | 183° |
| 2026-05-07 14:40 | 53.08275 | 13.67015 | 12042 ft | 292 kts | 183° |
| 2026-05-07 14:40 | 53.06256 | 13.66817 | 11740 ft | 290 kts | 183° |
| 2026-05-07 14:40 | 53.04380 | 13.66633 | 11460 ft | 289 kts | 183° |
| 2026-05-07 14:40 | 53.02457 | 13.66445 | 11176 ft | 287 kts | 183° |
| 2026-05-07 14:41 | 53.00672 | 13.66270 | 10907 ft | 286 kts | 183° |
| 2026-05-07 14:41 | 52.98767 | 13.66083 | 10624 ft | 284 kts | 183° |
| 2026-05-07 14:41 | 52.97073 | 13.65918 | 10375 ft | 283 kts | 183° |
| 2026-05-07 14:41 | 52.95117 | 13.65724 | 10207 ft | 277 kts | 184° |
| 2026-05-07 14:42 | 52.93372 | 13.64993 | 10048 ft | 272 kts | 210° |
| 2026-05-07 14:42 | 52.91984 | 13.62980 | 10020 ft | 263 kts | 232° |
| 2026-05-07 14:42 | 52.90999 | 13.60396 | 9995 ft | 273 kts | 240° |
| 2026-05-07 14:42 | 52.90066 | 13.57581 | 9943 ft | 282 kts | 242° |
| 2026-05-07 14:43 | 52.89150 | 13.54759 | 9872 ft | 281 kts | 242° |
| 2026-05-07 14:43 | 52.88227 | 13.51921 | 9801 ft | 279 kts | 242° |
| 2026-05-07 14:43 | 52.87295 | 13.49072 | 9745 ft | 277 kts | 241° |
| 2026-05-07 14:43 | 52.86388 | 13.46318 | 9692 ft | 275 kts | 241° |
| 2026-05-07 14:44 | 52.85473 | 13.43556 | 9641 ft | 274 kts | 241° |
| 2026-05-07 14:44 | 52.84553 | 13.40788 | 9610 ft | 276 kts | 241° |
| 2026-05-07 14:44 | 52.83618 | 13.37986 | 9562 ft | 279 kts | 241° |
| 2026-05-07 14:44 | 52.82681 | 13.35182 | 9497 ft | 278 kts | 241° |
| 2026-05-07 14:45 | 52.81744 | 13.32387 | 9446 ft | 277 kts | 241° |
| 2026-05-07 14:45 | 52.80811 | 13.29607 | 9397 ft | 276 kts | 241° |
| 2026-05-07 14:45 | 52.79880 | 13.26836 | 9344 ft | 276 kts | 241° |
| 2026-05-07 14:45 | 52.78948 | 13.24067 | 9300 ft | 276 kts | 241° |
| 2026-05-07 14:46 | 52.78015 | 13.21298 | 9244 ft | 276 kts | 241° |
| 2026-05-07 14:46 | 52.77081 | 13.18528 | 9188 ft | 276 kts | 241° |
| 2026-05-07 14:46 | 52.76147 | 13.15764 | 9139 ft | 276 kts | 240° |
| 2026-05-07 14:46 | 52.75212 | 13.13000 | 9086 ft | 275 kts | 240° |
| 2026-05-07 14:47 | 52.74279 | 13.10245 | 9042 ft | 275 kts | 240° |
| 2026-05-07 14:47 | 52.73345 | 13.07488 | 8997 ft | 275 kts | 240° |
| 2026-05-07 14:47 | 52.72410 | 13.04734 | 8945 ft | 275 kts | 240° |
| 2026-05-07 14:47 | 52.71475 | 13.01979 | 8886 ft | 275 kts | 240° |
| 2026-05-07 14:48 | 52.70537 | 12.99221 | 8838 ft | 275 kts | 240° |
| 2026-05-07 14:48 | 52.69600 | 12.96469 | 8780 ft | 276 kts | 240° |
| 2026-05-07 14:48 | 52.68745 | 12.93961 | 8750 ft | 275 kts | 240° |
| 2026-05-07 14:48 | 52.67805 | 12.91205 | 8686 ft | 276 kts | 240° |
| 2026-05-07 14:49 | 52.66867 | 12.88455 | 8647 ft | 275 kts | 240° |
| 2026-05-07 14:49 | 52.65765 | 12.85911 | 8532 ft | 274 kts | 219° |
| 2026-05-07 14:49 | 52.64054 | 12.84678 | 8310 ft | 270 kts | 184° |
| 2026-05-07 14:49 | 52.62205 | 12.85031 | 7977 ft | 269 kts | 164° |
| 2026-05-07 14:50 | 52.60409 | 12.85875 | 7795 ft | 266 kts | 162° |
| 2026-05-07 14:50 | 52.58644 | 12.86760 | 7690 ft | 265 kts | 162° |
| 2026-05-07 14:50 | 52.56908 | 12.87626 | 7607 ft | 264 kts | 162° |
| 2026-05-07 14:50 | 52.55138 | 12.88495 | 7540 ft | 267 kts | 162° |
| 2026-05-07 14:51 | 52.53340 | 12.89368 | 7475 ft | 271 kts | 162° |
| 2026-05-07 14:51 | 52.51528 | 12.90239 | 7406 ft | 271 kts | 162° |
| 2026-05-07 14:51 | 52.49718 | 12.91102 | 7322 ft | 271 kts | 162° |
| 2026-05-07 14:51 | 52.47916 | 12.91955 | 7244 ft | 269 kts | 162° |
| 2026-05-07 14:52 | 52.46122 | 12.92803 | 7178 ft | 267 kts | 162° |
| 2026-05-07 14:52 | 52.44340 | 12.93645 | 7108 ft | 266 kts | 161° |
| 2026-05-07 14:52 | 52.42688 | 12.94924 | 7022 ft | 262 kts | 141° |
| 2026-05-07 14:52 | 52.41256 | 12.96731 | 6974 ft | 259 kts | 141° |
| 2026-05-07 14:53 | 52.39842 | 12.98481 | 6888 ft | 251 kts | 141° |
| 2026-05-07 14:53 | 52.38457 | 13.00149 | 6825 ft | 244 kts | 145° |
| 2026-05-07 14:53 | 52.36875 | 13.01062 | 6753 ft | 243 kts | 171° |
| 2026-05-07 14:53 | 52.35195 | 13.01180 | 6687 ft | 244 kts | 190° |
| 2026-05-07 14:54 | 52.33687 | 12.99958 | 6639 ft | 247 kts | 224° |
| 2026-05-07 14:54 | 52.32784 | 12.97587 | 6592 ft | 250 kts | 255° |
| 2026-05-07 14:54 | 52.32436 | 12.94804 | 6547 ft | 250 kts | 263° |
| 2026-05-07 14:54 | 52.32210 | 12.91979 | 6462 ft | 252 kts | 258° |
| 2026-05-07 14:55 | 52.31594 | 12.89299 | 6405 ft | 252 kts | 247° |
| 2026-05-07 14:55 | 52.30806 | 12.86747 | 6302 ft | 252 kts | 232° |
| 2026-05-07 14:55 | 52.29448 | 12.85037 | 6242 ft | 247 kts | 200° |
| 2026-05-07 14:55 | 52.27783 | 12.84705 | 6172 ft | 242 kts | 168° |
| 2026-05-07 14:56 | 52.26283 | 12.85791 | 6112 ft | 236 kts | 140° |
| 2026-05-07 14:56 | 52.25043 | 12.87538 | 5983 ft | 238 kts | 136° |
| 2026-05-07 14:56 | 52.23838 | 12.89460 | 5747 ft | 244 kts | 125° |
| 2026-05-07 14:56 | 52.23288 | 12.91941 | 5705 ft | 232 kts | 88° |
| 2026-05-07 14:57 | 52.23764 | 12.94391 | 5569 ft | 226 kts | 57° |
| 2026-05-07 14:57 | 52.24541 | 12.96648 | 5268 ft | 234 kts | 64° |
| 2026-05-07 14:57 | 52.25186 | 12.99076 | 5077 ft | 234 kts | 67° |
| 2026-05-07 14:57 | 52.25794 | 13.01604 | 4708 ft | 240 kts | 68° |
| 2026-05-07 14:58 | 52.26380 | 13.04115 | 4456 ft | 239 kts | 68° |
| 2026-05-07 14:58 | 52.26952 | 13.06586 | 4383 ft | 226 kts | 68° |
| 2026-05-07 14:58 | 52.27492 | 13.08914 | 4291 ft | 213 kts | 68° |
| 2026-05-07 14:58 | 52.28003 | 13.11115 | 4197 ft | 202 kts | 68° |
| 2026-05-07 14:59 | 52.28489 | 13.13200 | 4136 ft | 191 kts | 68° |
| 2026-05-07 14:59 | 52.28946 | 13.15163 | 4070 ft | 179 kts | 68° |
| 2026-05-07 14:59 | 52.29378 | 13.17017 | 3963 ft | 170 kts | 68° |
| 2026-05-07 14:59 | 52.29792 | 13.18790 | 3771 ft | 167 kts | 68° |
| 2026-05-07 15:00 | 52.30204 | 13.20554 | 3552 ft | 165 kts | 67° |
| 2026-05-07 15:00 | 52.30609 | 13.22285 | 3351 ft | 163 kts | 67° |
| 2026-05-07 15:00 | 52.31014 | 13.24016 | 3125 ft | 162 kts | 68° |
| 2026-05-07 15:00 | 52.31419 | 13.25747 | 3053 ft | 166 kts | 67° |
| 2026-05-07 15:01 | 52.31830 | 13.27503 | 2922 ft | 166 kts | 67° |
| 2026-05-07 15:01 | 52.32227 | 13.29201 | 2702 ft | 154 kts | 67° |
| 2026-05-07 15:01 | 52.32593 | 13.30762 | 2532 ft | 143 kts | 67° |
| 2026-05-07 15:01 | 52.32940 | 13.32242 | 2355 ft | 138 kts | 66° |
| 2026-05-07 15:02 | 52.33279 | 13.33683 | 2143 ft | 135 kts | 67° |
| 2026-05-07 15:02 | 52.33618 | 13.35125 | 1962 ft | 138 kts | 67° |
| 2026-05-07 15:02 | 52.33962 | 13.36589 | 1766 ft | 139 kts | 66° |
| 2026-05-07 15:02 | 52.34298 | 13.38017 | 1581 ft | 137 kts | 67° |
| 2026-05-07 15:03 | 52.34648 | 13.39507 | 1384 ft | 137 kts | 67° |
| 2026-05-07 15:03 | 52.34990 | 13.40961 | 1190 ft | 138 kts | 68° |
| 2026-05-07 15:03 | 52.35332 | 13.42410 | 995 ft | 135 kts | 68° |
| 2026-05-07 15:03 | 52.35670 | 13.43840 | 794 ft | 134 kts | 68° |
| 2026-05-07 15:04 | 52.36001 | 13.45255 | 613 ft | 132 kts | 69° |
| 2026-05-07 15:04 | 52.36350 | 13.46675 | 432 ft | 135 kts | 69° |
| 2026-05-07 15:04 | 52.36676 | 13.48114 | 254 ft | 135 kts | 71° |
| 2026-05-07 15:04 | 52.37007 | 13.49510 | 158 ft | 123 kts | 70° |
| 2026-05-07 15:05 | 52.37275 | 13.50633 | 154 ft | 85 kts | 68° |
| 2026-05-07 15:05 | 52.37420 | 13.51257 | 155 ft | 43 kts | 69° |
| 2026-05-07 15:05 | 52.37449 | 13.51630 | 154 ft | 28 kts | 97° |
| 2026-05-07 15:05 | 52.37432 | 13.51814 | 154 ft | 9 kts | 99° |
| 2026-05-07 15:06 | 52.37422 | 13.51914 | 154 ft | 9 kts | 100° |
| 2026-05-07 15:06 | 52.37391 | 13.51995 | 154 ft | 9 kts | 140° |
| 2026-05-07 15:06 | 52.37339 | 13.52038 | 154 ft | 8 kts | 160° |
| 2026-05-07 15:06 | 52.37284 | 13.52044 | 154 ft | 8 kts | 208° |
| 2026-05-07 15:07 | 52.37258 | 13.51967 | 154 ft | 8 kts | 248° |
| 2026-05-07 15:07 | 52.37233 | 13.51868 | 154 ft | 12 kts | 249° |
| 2026-05-07 15:07 | 52.37198 | 13.51711 | 154 ft | 16 kts | 249° |
| 2026-05-07 15:07 | 52.37163 | 13.51565 | 154 ft | 7 kts | 249° |
| 2026-05-07 15:08 | 52.37133 | 13.51489 | 154 ft | 9 kts | 212° |
| 2026-05-07 15:08 | 52.37074 | 13.51484 | 154 ft | 8 kts | 188° |
| 2026-05-07 15:08 | 52.37034 | 13.51422 | 154 ft | 9 kts | 245° |
| 2026-05-07 15:08 | 52.37009 | 13.51318 | 154 ft | 11 kts | 249° |
| 2026-05-07 15:09 | 52.36976 | 13.51182 | 154 ft | 14 kts | 249° |
| 2026-05-07 15:09 | 52.36941 | 13.51032 | 154 ft | 14 kts | 248° |
| 2026-05-07 15:09 | 52.36906 | 13.50889 | 154 ft | 13 kts | 249° |
| 2026-05-07 15:09 | 52.36881 | 13.50784 | 154 ft | 9 kts | 249° |
| 2026-05-07 15:10 | 52.36866 | 13.50719 | 154 ft | 4 kts | 249° |
| 2026-05-07 15:10 | 52.36841 | 13.50708 | 154 ft | 4 kts | 161° |
| 2026-05-07 15:10 | 52.36814 | 13.50724 | 154 ft | 4 kts | 159° |
| 2026-05-07 15:10 | 52.36792 | 13.50739 | 154 ft | 1 kts | 159° |
| 2026-05-07 15:11 | 52.36786 | 13.50742 | 154 ft | 0 kts | 159° |